Time;durP1;ratioP1;P1;durP2;ratioP2;P2;SDS_P1;SDS_P2;PMS_P1;PMS_P2;Temp;Humidity;BMP_temperature;BMP_pressure;BME280_temperature;BME280_humidity;BME280_pressure;Samples;Min_cycle;Max_cycle;Signal;HPM_P1;HPM_P2
2021/12/28 00:00:24;;;;;;;4.80;1.60;;;7.10;58.50;;;;;;5064647;28;20118;-70
2021/12/28 00:02:52;;;;;;;3.03;1.60;;;7.20;57.50;;;;;;5082941;28;20044;-70
2021/12/28 00:05:22;;;;;;;7.53;2.00;;;7.10;56.20;;;;;;5085363;28;20511;-68
2021/12/28 00:07:50;;;;;;;2.97;1.40;;;7.10;56.40;;;;;;5072390;28;20093;-69
2021/12/28 00:10:21;;;;;;;4.18;1.85;;;7.00;55.90;;;;;;5062906;28;20094;-71
2021/12/28 00:12:49;;;;;;;5.38;1.95;;;7.10;56.50;;;;;;5067354;28;20067;-70
2021/12/28 00:15:33;;;;;;;4.43;1.40;;;7.00;56.00;;;;;;5065974;28;20055;-70
2021/12/28 00:18:03;;;;;;;9.60;2.15;;;7.00;56.10;;;;;;5063940;28;20102;-70
2021/12/28 00:20:35;;;;;;;4.53;1.45;;;7.00;56.10;;;;;;5071082;28;20045;-68
2021/12/28 00:23:05;;;;;;;3.60;1.67;;;6.90;55.80;;;;;;5075601;28;20487;-68
2021/12/28 00:25:33;;;;;;;7.55;2.08;;;7.00;56.20;;;;;;5089422;28;20079;-68
2021/12/28 00:28:01;;;;;;;12.50;1.85;;;7.00;56.40;;;;;;5093469;28;20149;-68
2021/12/28 00:30:30;;;;;;;8.38;1.95;;;7.00;55.90;;;;;;5090419;28;20132;-69
2021/12/28 00:32:58;;;;;;;3.78;1.30;;;7.00;55.90;;;;;;5068971;28;20040;-69
2021/12/28 00:35:31;;;;;;;6.25;1.50;;;7.00;55.80;;;;;;5085487;28;20148;-69
2021/12/28 00:37:59;;;;;;;7.85;2.05;;;7.00;55.80;;;;;;5090494;28;20139;-70
2021/12/28 00:40:28;;;;;;;2.38;1.50;;;6.90;54.80;;;;;;5087150;28;20507;-69
2021/12/28 00:42:56;;;;;;;6.32;1.67;;;6.90;54.90;;;;;;5088381;28;20039;-69
2021/12/28 00:45:24;;;;;;;9.05;1.95;;;6.90;55.10;;;;;;5084660;28;20104;-69
2021/12/28 00:47:54;;;;;;;4.53;1.75;;;6.90;54.70;;;;;;5068603;28;20143;-70
2021/12/28 00:50:24;;;;;;;5.00;1.60;;;6.90;54.30;;;;;;5080288;28;20043;-70
2021/12/28 00:52:55;;;;;;;6.28;2.10;;;6.90;54.70;;;;;;5083310;28;20079;-70
2021/12/28 00:55:23;;;;;;;6.30;2.05;;;6.90;54.00;;;;;;5086026;28;20771;-69
2021/12/28 00:57:52;;;;;;;3.67;1.30;;;6.90;53.90;;;;;;5087700;28;20073;-69
2021/12/28 01:00:24;;;;;;;6.80;1.73;;;6.90;53.50;;;;;;5063772;28;20032;-70
2021/12/28 01:02:54;;;;;;;5.50;1.88;;;6.90;53.30;;;;;;5063637;28;20143;-69
2021/12/28 01:05:23;;;;;;;6.47;1.95;;;6.90;52.90;;;;;;5067929;28;20097;-69
2021/12/28 01:07:53;;;;;;;5.43;2.00;;;6.90;53.40;;;;;;5066048;28;20131;-70
2021/12/28 01:10:25;;;;;;;6.45;1.50;;;7.00;54.10;;;;;;5065339;28;20139;-69
2021/12/28 01:12:55;;;;;;;6.90;2.03;;;7.00;52.00;;;;;;5065455;28;20044;-69
2021/12/28 01:15:24;;;;;;;10.63;1.88;;;7.20;50.40;;;;;;5065336;28;20520;-70
2021/12/28 01:17:54;;;;;;;8.18;1.85;;;7.30;49.60;;;;;;5065333;28;20044;-69
2021/12/28 01:20:23;;;;;;;8.10;1.92;;;7.30;47.30;;;;;;5062770;28;20036;-69
2021/12/28 01:22:51;;;;;;;11.90;2.35;;;7.30;45.80;;;;;;5065120;28;20518;-69
2021/12/28 01:25:20;;;;;;;8.88;1.85;;;7.40;45.40;;;;;;5061727;28;20139;-69
2021/12/28 01:27:48;;;;;;;6.95;2.28;;;7.30;45.00;;;;;;5071182;28;20128;-69
2021/12/28 01:30:20;;;;;;;9.75;1.65;;;7.40;44.20;;;;;;5065840;28;20041;-69
2021/12/28 01:32:49;;;;;;;8.27;1.63;;;7.40;44.10;;;;;;5061421;28;20066;-69
2021/12/28 01:35:20;;;;;;;14.27;2.60;;;7.50;42.80;;;;;;5067514;28;20068;-69
2021/12/28 01:37:50;;;;;;;10.57;2.40;;;7.40;42.80;;;;;;5065475;28;20044;-69
2021/12/28 01:40:21;;;;;;;8.88;1.95;;;7.40;42.30;;;;;;5062200;28;20059;-68
2021/12/28 01:42:58;;;;;;;8.63;2.20;;;7.50;42.20;;;;;;5065880;28;20056;-69
2021/12/28 01:45:46;;;;;;;9.50;1.67;;;7.50;41.80;;;;;;5078172;28;20036;-69
2021/12/28 01:48:19;;;;;;;8.20;2.15;;;7.40;41.60;;;;;;5067016;28;20127;-69
2021/12/28 01:50:50;;;;;;;15.82;6.15;;;7.30;44.00;;;;;;5064230;28;20124;-69
2021/12/28 01:53:18;;;;;;;13.68;4.38;;;7.30;44.10;;;;;;5067325;28;20060;-69
2021/12/28 01:55:51;;;;;;;13.57;3.22;;;7.30;44.10;;;;;;5069850;28;20383;-69
2021/12/28 01:58:19;;;;;;;12.93;2.38;;;7.40;44.20;;;;;;5069695;28;20043;-69
2021/12/28 02:00:50;;;;;;;9.50;2.15;;;7.30;44.10;;;;;;5073477;28;20322;-68
2021/12/28 02:03:21;;;;;;;14.15;2.42;;;7.30;44.10;;;;;;5066682;28;20570;-68
2021/12/28 02:05:51;;;;;;;8.27;2.30;;;7.60;41.00;;;;;;5072846;28;20052;-69
2021/12/28 02:08:20;;;;;;;9.13;1.98;;;7.60;39.00;;;;;;5076821;28;20051;-68
2021/12/28 02:10:49;;;;;;;9.35;2.30;;;7.60;39.40;;;;;;5067071;28;20528;-69
2021/12/28 02:13:20;;;;;;;6.25;1.50;;;7.60;39.60;;;;;;5070146;28;20037;-69
2021/12/28 02:15:49;;;;;;;7.53;2.08;;;7.70;38.20;;;;;;5068610;28;20053;-70
2021/12/28 02:18:20;;;;;;;7.03;1.70;;;7.60;38.90;;;;;;5072636;28;20075;-69
2021/12/28 02:20:51;;;;;;;6.57;1.77;;;7.60;39.80;;;;;;5090515;28;20040;-69
2021/12/28 02:23:19;;;;;;;6.70;1.88;;;7.50;40.80;;;;;;5081227;28;20048;-69
2021/12/28 02:25:47;;;;;;;9.80;1.90;;;7.50;40.10;;;;;;5072947;28;20051;-70
2021/12/28 02:28:16;;;;;;;11.07;1.85;;;7.40;40.60;;;;;;5075142;28;20623;-70
2021/12/28 02:30:47;;;;;;;6.18;2.03;;;7.30;41.70;;;;;;5074852;28;20036;-70
2021/12/28 02:33:20;;;;;;;7.57;2.30;;;7.20;42.60;;;;;;5070619;28;20047;-71
2021/12/28 02:35:51;;;;;;;4.63;1.45;;;7.20;43.20;;;;;;5076005;28;20098;-69
2021/12/28 02:38:22;;;;;;;4.85;1.83;;;7.20;42.60;;;;;;5072089;28;20050;-69
2021/12/28 02:40:50;;;;;;;9.20;2.00;;;7.10;43.00;;;;;;5069936;28;20049;-69
2021/12/28 02:43:18;;;;;;;3.55;1.55;;;7.00;43.80;;;;;;5070968;28;20043;-68
2021/12/28 02:45:52;;;;;;;6.88;1.80;;;7.00;43.80;;;;;;5076714;28;20127;-69
2021/12/28 02:48:22;;;;;;;5.20;1.83;;;7.00;43.20;;;;;;5067343;28;20829;-69
2021/12/28 02:50:55;;;;;;;6.35;1.95;;;7.00;43.80;;;;;;5071249;28;20048;-70
2021/12/28 02:53:23;;;;;;;9.88;2.70;;;6.90;43.80;;;;;;5070514;28;20051;-70
2021/12/28 02:55:53;;;;;;;10.75;1.92;;;6.90;43.90;;;;;;5069624;28;20052;-70
2021/12/28 02:58:28;;;;;;;11.38;2.72;;;7.00;43.80;;;;;;5070216;28;20450;-70
2021/12/28 03:01:01;;;;;;;6.00;1.70;;;6.90;43.80;;;;;;5074645;28;20040;-70
2021/12/28 03:03:31;;;;;;;8.98;2.17;;;6.90;43.40;;;;;;5070398;28;20044;-69
2021/12/28 03:06:02;;;;;;;3.88;1.35;;;7.00;42.10;;;;;;5068217;28;20152;-70
2021/12/28 03:08:31;;;;;;;6.18;1.90;;;7.10;40.40;;;;;;5079909;28;21249;-70
2021/12/28 03:11:02;;;;;;;6.43;2.50;;;7.10;40.60;;;;;;5066643;28;20044;-69
2021/12/28 03:13:33;;;;;;;10.90;2.15;;;7.00;40.70;;;;;;5047502;28;20141;-70
2021/12/28 03:16:01;;;;;;;11.13;2.65;;;7.10;40.60;;;;;;5069774;28;20058;-70
2021/12/28 03:18:29;;;;;;;8.65;1.98;;;7.10;41.00;;;;;;5069838;28;20045;-71
2021/12/28 03:20:57;;;;;;;10.57;2.00;;;7.10;40.90;;;;;;5065726;28;20068;-71
2021/12/28 03:23:28;;;;;;;10.23;2.35;;;7.10;40.70;;;;;;5066569;28;20585;-71
2021/12/28 03:25:56;;;;;;;7.90;2.70;;;7.00;41.60;;;;;;5065619;28;20189;-70
2021/12/28 03:28:27;;;;;;;7.55;2.20;;;7.00;41.40;;;;;;5067402;28;20051;-71
2021/12/28 03:30:56;;;;;;;7.85;1.67;;;7.10;41.20;;;;;;5065980;28;20045;-71
2021/12/28 03:33:26;;;;;;;7.45;1.98;;;7.10;39.90;;;;;;5065292;28;20407;-70
2021/12/28 03:35:55;;;;;;;6.93;2.22;;;7.20;39.60;;;;;;5068051;28;20090;-70
2021/12/28 03:38:23;;;;;;;8.70;2.13;;;7.20;39.10;;;;;;5063023;28;20044;-70
2021/12/28 03:40:54;;;;;;;8.40;2.17;;;7.20;38.50;;;;;;5065110;28;20722;-71
2021/12/28 03:43:24;;;;;;;7.88;1.95;;;7.30;37.60;;;;;;5063484;28;20139;-71
2021/12/28 03:45:52;;;;;;;11.02;2.33;;;7.30;37.20;;;;;;5070074;28;20803;-70
2021/12/28 03:48:21;;;;;;;7.80;1.88;;;7.30;36.90;;;;;;5074982;28;20048;-70
2021/12/28 03:50:49;;;;;;;17.90;2.10;;;7.30;36.10;;;;;;5080610;28;20832;-70
2021/12/28 03:53:16;;;;;;;10.10;2.15;;;7.30;35.80;;;;;;5082239;28;20044;-70
2021/12/28 03:55:44;;;;;;;8.85;2.28;;;7.40;34.50;;;;;;5086475;28;20048;-70
2021/12/28 03:58:14;;;;;;;8.07;1.83;;;7.30;35.30;;;;;;5086745;28;20044;-70
2021/12/28 04:00:47;;;;;;;11.10;2.72;;;7.40;34.50;;;;;;5043908;28;20048;-70
2021/12/28 04:03:16;;;;;;;8.05;1.85;;;7.40;34.20;;;;;;5064379;28;20076;-69
2021/12/28 04:05:45;;;;;;;9.63;2.10;;;7.40;34.10;;;;;;5063406;28;20055;-69
2021/12/28 04:08:19;;;;;;;7.88;2.00;;;7.40;33.70;;;;;;5067264;28;20135;-69
2021/12/28 04:10:52;;;;;;;8.00;2.10;;;7.50;32.20;;;;;;5060816;28;20537;-69
2021/12/28 04:13:24;;;;;;;6.95;1.90;;;7.40;33.00;;;;;;5065150;28;20047;-69
2021/12/28 04:15:52;;;;;;;7.32;2.70;;;7.40;32.90;;;;;;5069718;28;20128;-69
2021/12/28 04:18:21;;;;;;;5.75;2.10;;;7.50;31.70;;;;;;5066629;28;20076;-69
2021/12/28 04:20:49;;;;;;;7.82;2.35;;;7.40;32.40;;;;;;5067980;28;20084;-69
2021/12/28 04:23:17;;;;;;;7.13;1.50;;;7.40;32.70;;;;;;5066659;28;20120;-69
2021/12/28 04:25:45;;;;;;;6.35;1.80;;;7.50;32.10;;;;;;5069621;28;20052;-69
2021/12/28 04:28:16;;;;;;;8.40;2.15;;;7.50;32.10;;;;;;5068110;28;20618;-69
2021/12/28 04:30:45;;;;;;;9.98;2.00;;;7.40;32.40;;;;;;5071404;28;20040;-70
2021/12/28 04:33:13;;;;;;;8.93;1.85;;;7.40;34.00;;;;;;5067501;28;20106;-70
2021/12/28 04:35:41;;;;;;;7.18;1.63;;;7.50;33.10;;;;;;5076448;28;20056;-70
2021/12/28 04:38:09;;;;;;;5.22;2.03;;;7.50;33.70;;;;;;5074765;28;20554;-70
2021/12/28 04:40:39;;;;;;;6.85;1.58;;;7.50;34.20;;;;;;5065492;28;20072;-71
2021/12/28 04:43:07;;;;;;;10.32;2.17;;;7.40;34.00;;;;;;5068286;28;20868;-70
2021/12/28 04:45:37;;;;;;;10.05;2.13;;;7.40;33.60;;;;;;5076298;28;20132;-70
2021/12/28 04:48:08;;;;;;;5.55;1.52;;;7.40;34.70;;;;;;5070664;28;20046;-71
2021/12/28 04:50:39;;;;;;;13.95;1.65;;;7.40;34.70;;;;;;5063105;28;20123;-71
2021/12/28 04:53:10;;;;;;;7.57;1.65;;;7.40;35.80;;;;;;5066110;28;20040;-69
2021/12/28 04:55:39;;;;;;;12.02;2.25;;;7.30;36.10;;;;;;5067428;28;20139;-69
2021/12/28 04:58:07;;;;;;;10.00;2.05;;;7.30;37.30;;;;;;5068716;28;20041;-69
2021/12/28 05:00:36;;;;;;;4.35;1.52;;;7.30;37.50;;;;;;5066234;28;20074;-69
2021/12/28 05:03:05;;;;;;;9.68;2.05;;;7.30;36.90;;;;;;5064148;28;20676;-69
2021/12/28 05:05:36;;;;;;;5.45;1.73;;;7.30;37.50;;;;;;5068729;28;20136;-69
2021/12/28 05:08:05;;;;;;;9.43;1.88;;;7.30;37.00;;;;;;5082007;28;20040;-70
2021/12/28 05:10:33;;;;;;;6.15;1.60;;;7.20;38.30;;;;;;5074028;28;20048;-71
2021/12/28 05:13:01;;;;;;;4.78;1.73;;;7.20;38.30;;;;;;5062354;28;20047;-71
2021/12/28 05:15:30;;;;;;;7.97;1.98;;;7.30;38.70;;;;;;5065237;28;20127;-71
2021/12/28 05:17:58;;;;;;;11.73;1.70;;;7.20;38.80;;;;;;5088404;28;20048;-70
2021/12/28 05:20:26;;;;;;;5.78;2.20;;;7.10;40.90;;;;;;5086605;28;20047;-70
2021/12/28 05:22:55;;;;;;;5.93;1.77;;;7.10;42.50;;;;;;5086308;28;20047;-70
2021/12/28 05:25:24;;;;;;;7.40;1.70;;;7.10;42.80;;;;;;5083071;28;20044;-70
2021/12/28 05:27:52;;;;;;;5.88;2.05;;;7.10;43.90;;;;;;5071943;28;20049;-70
2021/12/28 05:30:20;;;;;;;6.30;1.90;;;7.10;43.90;;;;;;5087007;28;20135;-69
2021/12/28 05:32:49;;;;;;;8.23;2.10;;;7.10;43.90;;;;;;5068825;28;20051;-69
2021/12/28 05:35:18;;;;;;;11.65;1.90;;;7.10;43.90;;;;;;5061509;28;20068;-70
2021/12/28 05:37:46;;;;;;;10.00;2.45;;;7.10;44.00;;;;;;5068343;28;20066;-70
2021/12/28 05:40:17;;;;;;;5.22;1.52;;;7.10;44.20;;;;;;5064519;28;20045;-70
2021/12/28 05:42:45;;;;;;;5.53;1.75;;;7.10;45.00;;;;;;5066011;28;20602;-71
2021/12/28 05:45:13;;;;;;;7.07;2.35;;;7.00;45.10;;;;;;5067193;28;20139;-70
2021/12/28 05:47:41;;;;;;;4.53;1.90;;;7.10;46.00;;;;;;5065265;28;20044;-70
2021/12/28 05:50:12;;;;;;;4.07;1.80;;;7.00;46.80;;;;;;5069973;28;20059;-70
2021/12/28 05:52:40;;;;;;;8.30;2.10;;;7.00;47.00;;;;;;5067745;28;20045;-70
2021/12/28 05:55:09;;;;;;;8.60;3.88;;;7.00;47.20;;;;;;5070612;28;20059;-70
2021/12/28 05:57:39;;;;;;;8.88;3.33;;;7.00;46.90;;;;;;5067274;28;20423;-70
2021/12/28 06:00:09;;;;;;;7.07;1.80;;;7.10;46.50;;;;;;5064728;28;20049;-71
2021/12/28 06:02:37;;;;;;;5.78;1.90;;;7.10;46.20;;;;;;5074651;28;20159;-71
2021/12/28 06:05:06;;;;;;;11.00;2.58;;;7.10;46.60;;;;;;5067964;28;20048;-71
2021/12/28 06:07:34;;;;;;;8.30;2.20;;;7.10;47.30;;;;;;5064435;28;20041;-71
2021/12/28 06:10:02;;;;;;;8.13;2.15;;;7.10;47.60;;;;;;5065496;28;20057;-71
2021/12/28 06:12:30;;;;;;;8.27;2.03;;;7.10;47.90;;;;;;5067295;28;20048;-71
2021/12/28 06:15:00;;;;;;;9.43;2.50;;;7.10;47.90;;;;;;5067626;28;20047;-72
2021/12/28 06:17:28;;;;;;;7.10;2.10;;;7.10;47.90;;;;;;5068058;28;20052;-71
2021/12/28 06:19:56;;;;;;;10.20;2.70;;;7.10;48.10;;;;;;5065186;28;20127;-72
2021/12/28 06:22:24;;;;;;;7.28;2.22;;;7.10;48.40;;;;;;5065573;28;20571;-70
2021/12/28 06:24:52;;;;;;;12.50;5.50;;;7.10;48.80;;;;;;5071130;28;20047;-72
2021/12/28 06:27:21;;;;;;;6.30;2.42;;;7.20;49.10;;;;;;5066519;28;20055;-71
2021/12/28 06:29:50;;;;;;;5.57;2.90;;;7.20;49.50;;;;;;5064509;28;20048;-70
2021/12/28 06:32:20;;;;;;;6.30;2.03;;;7.20;49.70;;;;;;5067143;28;20664;-70
2021/12/28 06:34:47;;;;;;;5.88;2.17;;;7.10;50.60;;;;;;5070055;28;20062;-71
2021/12/28 06:37:16;;;;;;;10.02;2.20;;;7.20;51.10;;;;;;5066971;28;20131;-71
2021/12/28 06:39:45;;;;;;;5.53;1.75;;;7.20;51.60;;;;;;5070670;28;20079;-71
2021/12/28 06:42:13;;;;;;;5.10;2.20;;;7.20;51.40;;;;;;5069237;28;20051;-71
2021/12/28 06:44:44;;;;;;;5.50;2.50;;;7.20;51.60;;;;;;5068194;28;20124;-71
2021/12/28 06:47:12;;;;;;;9.93;2.38;;;7.30;50.70;;;;;;5069814;28;20259;-71
2021/12/28 06:49:42;;;;;;;7.82;3.00;;;7.30;50.00;;;;;;5068825;28;20048;-71
2021/12/28 06:52:11;;;;;;;6.57;2.80;;;7.20;50.00;;;;;;5062416;28;20801;-71
2021/12/28 06:54:39;;;;;;;4.68;2.30;;;7.30;50.30;;;;;;5072559;28;20037;-71
2021/12/28 06:57:08;;;;;;;7.45;2.30;;;7.30;49.70;;;;;;5068323;28;20075;-72
2021/12/28 06:59:42;;;;;;;11.23;2.38;;;7.30;49.30;;;;;;5068543;28;20503;-73
2021/12/28 07:02:11;;;;;;;9.30;2.03;;;7.30;49.50;;;;;;5069448;28;20055;-71
2021/12/28 07:04:39;;;;;;;5.25;2.13;;;7.40;49.40;;;;;;5068736;28;20500;-71
2021/12/28 07:07:09;;;;;;;4.55;2.15;;;7.40;48.10;;;;;;5068483;28;20067;-71
2021/12/28 07:09:41;;;;;;;5.10;2.13;;;7.40;47.70;;;;;;5069978;28;20060;-71
2021/12/28 07:12:10;;;;;;;4.13;1.80;;;7.40;48.10;;;;;;5081706;28;20891;-71
2021/12/28 07:14:38;;;;;;;8.23;1.80;;;7.60;46.90;;;;;;5067254;28;20040;-71
2021/12/28 07:17:06;;;;;;;6.05;1.17;;;7.70;44.40;;;;;;5067976;28;20579;-70
2021/12/28 07:19:34;;;;;;;3.08;1.00;;;7.80;42.20;;;;;;5067056;28;20049;-71
2021/12/28 07:22:03;;;;;;;3.92;0.75;;;7.90;40.50;;;;;;5068458;28;20144;-71
2021/12/28 07:24:32;;;;;;;3.55;1.17;;;7.90;39.00;;;;;;5071247;28;20048;-72
2021/12/28 07:27:04;;;;;;;2.97;1.15;;;7.90;38.90;;;;;;5068740;28;20053;-71
2021/12/28 07:29:34;;;;;;;2.28;0.85;;;7.90;39.50;;;;;;5066877;28;20045;-72
2021/12/28 07:32:08;;;;;;;2.95;0.80;;;8.00;38.70;;;;;;5069278;28;21240;-70
2021/12/28 07:34:39;;;;;;;4.03;0.80;;;8.10;38.60;;;;;;5067258;28;20037;-71
2021/12/28 07:37:07;;;;;;;1.35;0.77;;;8.10;36.80;;;;;;5067403;28;20040;-71
2021/12/28 07:39:37;;;;;;;1.70;0.90;;;8.20;37.20;;;;;;5066765;28;20051;-70
2021/12/28 07:42:05;;;;;;;1.33;0.80;;;8.20;37.10;;;;;;5068047;28;20062;-70
2021/12/28 07:44:35;;;;;;;1.67;0.57;;;8.20;36.50;;;;;;5067262;28;20047;-71
2021/12/28 07:47:04;;;;;;;2.35;0.55;;;8.30;36.10;;;;;;5069777;28;20054;-70
2021/12/28 07:49:33;;;;;;;1.27;0.55;;;8.30;36.10;;;;;;5066014;28;20132;-70
2021/12/28 07:52:01;;;;;;;1.15;0.65;;;8.50;32.90;;;;;;5063643;28;20048;-71
2021/12/28 07:54:29;;;;;;;0.98;0.47;;;8.40;35.30;;;;;;5068682;28;20044;-72
2021/12/28 07:56:59;;;;;;;1.42;0.85;;;8.40;34.50;;;;;;5086951;28;20044;-72
2021/12/28 07:59:27;;;;;;;1.15;0.63;;;8.50;33.90;;;;;;5071387;28;20699;-70
2021/12/28 08:01:55;;;;;;;1.60;0.60;;;8.50;33.90;;;;;;5071249;28;20093;-71
2021/12/28 08:04:27;;;;;;;1.23;0.70;;;8.50;34.40;;;;;;5068446;28;20490;-72
2021/12/28 08:06:55;;;;;;;0.95;0.73;;;8.60;32.50;;;;;;5070078;28;20072;-72
2021/12/28 08:09:24;;;;;;;1.00;0.70;;;8.60;32.50;;;;;;5069996;28;20044;-71
2021/12/28 08:11:52;;;;;;;0.98;0.63;;;8.60;32.60;;;;;;5068420;28;20900;-72
2021/12/28 08:14:22;;;;;;;2.40;1.33;;;8.60;33.00;;;;;;5061470;28;20067;-72
2021/12/28 08:16:50;;;;;;;1.70;0.88;;;8.70;32.30;;;;;;5069502;28;20048;-72
2021/12/28 08:19:18;;;;;;;1.75;0.98;;;8.80;30.70;;;;;;5071897;28;20138;-72
2021/12/28 08:21:46;;;;;;;0.75;0.52;;;8.80;30.60;;;;;;5087030;28;20048;-72
2021/12/28 08:24:14;;;;;;;2.63;0.93;;;8.80;30.60;;;;;;5069909;28;20487;-72
2021/12/28 08:26:45;;;;;;;0.70;0.50;;;8.90;30.10;;;;;;5086006;28;20060;-72
2021/12/28 08:29:14;;;;;;;0.57;0.43;;;8.90;30.70;;;;;;5075549;28;20045;-72
2021/12/28 08:31:44;;;;;;;0.85;0.60;;;8.90;31.70;;;;;;5066683;28;20036;-72
2021/12/28 08:34:15;;;;;;;1.20;0.50;;;8.90;32.00;;;;;;5063254;28;20136;-74
2021/12/28 08:36:43;;;;;;;1.25;0.30;;;8.90;31.60;;;;;;5067239;28;20084;-71
2021/12/28 08:39:11;;;;;;;1.40;0.70;;;8.90;32.80;;;;;;5069347;28;20307;-72
2021/12/28 08:41:39;;;;;;;1.50;0.30;;;9.00;32.90;;;;;;5066297;28;20070;-70
2021/12/28 08:44:07;;;;;;;1.60;0.40;;;9.00;32.80;;;;;;5065803;28;20124;-72
2021/12/28 08:46:35;;;;;;;0.70;0.40;;;9.00;33.30;;;;;;5067327;28;20049;-72
2021/12/28 08:49:06;;;;;;;1.63;0.75;;;9.00;32.80;;;;;;5068991;28;21392;-73
2021/12/28 08:51:34;;;;;;;3.50;0.40;;;9.10;32.90;;;;;;5068920;28;20075;-72
2021/12/28 08:54:02;;;;;;;0.52;0.30;;;9.10;32.90;;;;;;5064105;28;20071;-71
2021/12/28 08:56:32;;;;;;;0.47;0.25;;;9.10;32.90;;;;;;5066217;28;20101;-72
2021/12/28 08:59:01;;;;;;;0.28;0.25;;;9.20;33.30;;;;;;5067701;28;20039;-71
2021/12/28 09:01:29;;;;;;;0.40;0.38;;;9.20;33.00;;;;;;5064787;28;20040;-71
2021/12/28 09:03:58;;;;;;;2.88;0.50;;;9.30;33.40;;;;;;5063709;28;20078;-71
2021/12/28 09:06:27;;;;;;;0.55;0.20;;;9.30;33.00;;;;;;5070738;28;20653;-72
2021/12/28 09:08:55;;;;;;;0.30;0.28;;;9.30;33.10;;;;;;5063952;28;20048;-72
2021/12/28 09:11:24;;;;;;;1.85;0.70;;;9.30;33.40;;;;;;5065322;28;20063;-71
2021/12/28 09:13:53;;;;;;;1.55;0.40;;;9.30;33.30;;;;;;5057948;28;20420;-72
2021/12/28 09:16:23;;;;;;;2.03;0.38;;;9.30;33.10;;;;;;5046008;28;20047;-71
2021/12/28 09:18:54;;;;;;;2.67;0.52;;;9.30;33.70;;;;;;5050390;28;20163;-72
2021/12/28 09:21:22;;;;;;;0.65;0.43;;;9.30;34.50;;;;;;5065298;28;20127;-72
2021/12/28 09:23:51;;;;;;;0.70;0.32;;;9.30;35.10;;;;;;5066782;28;20044;-71
2021/12/28 09:26:39;;;;;;;0.63;0.22;;;9.40;34.00;;;;;;5065916;28;20044;-71
2021/12/28 09:29:07;;;;;;;0.73;0.40;;;9.40;32.20;;;;;;5067213;28;20050;-72
2021/12/28 09:31:36;;;;;;;2.67;1.85;;;9.50;32.90;;;;;;5066051;28;20048;-72
2021/12/28 09:34:04;;;;;;;0.47;0.45;;;9.60;32.20;;;;;;5065656;28;20052;-71
2021/12/28 09:36:52;;;;;;;0.55;0.40;;;9.60;31.60;;;;;;5068234;28;20036;-72
2021/12/28 09:39:26;;;;;;;0.40;0.30;;;9.70;31.60;;;;;;5068290;28;20044;-72
2021/12/28 09:41:58;;;;;;;1.10;0.40;;;9.70;30.60;;;;;;5067010;28;20049;-70
2021/12/28 09:44:27;;;;;;;0.40;0.30;;;9.80;30.50;;;;;;5063051;28;20167;-72
2021/12/28 09:46:57;;;;;;;0.32;0.28;;;9.80;30.60;;;;;;5065393;28;20051;-72
2021/12/28 09:49:27;;;;;;;0.63;0.30;;;9.80;29.60;;;;;;5065142;28;20037;-71
2021/12/28 09:52:00;;;;;;;2.25;0.60;;;9.80;30.80;;;;;;5066832;28;20040;-73
2021/12/28 09:54:30;;;;;;;0.50;0.50;;;9.80;31.30;;;;;;5055894;28;20037;-72
2021/12/28 09:57:00;;;;;;;0.90;0.32;;;9.80;32.20;;;;;;5078998;28;20491;-71
2021/12/28 09:59:29;;;;;;;0.60;0.32;;;9.80;31.90;;;;;;5068039;28;20059;-72
2021/12/28 10:01:59;;;;;;;1.02;0.30;;;9.80;31.90;;;;;;5067886;28;20289;-71
2021/12/28 10:04:28;;;;;;;0.73;0.30;;;9.80;30.80;;;;;;5076199;28;20049;-71
2021/12/28 10:07:18;;;;;;;0.30;0.30;;;9.90;31.70;;;;;;5069479;28;20048;-71
2021/12/28 10:09:48;;;;;;;1.00;0.68;;;9.90;32.40;;;;;;5070662;28;20087;-73
2021/12/28 10:12:27;;;;;;;2.90;1.10;;;9.90;32.70;;;;;;5069082;28;20044;-71
2021/12/28 10:14:56;;;;;;;0.90;0.50;;;9.90;33.40;;;;;;5066909;28;20048;-72
2021/12/28 10:17:26;;;;;;;1.05;0.70;;;9.90;33.70;;;;;;5069723;28;20091;-72
2021/12/28 10:19:55;;;;;;;1.83;1.10;;;10.00;32.70;;;;;;5068002;28;20052;-71
2021/12/28 10:22:29;;;;;;;1.15;0.70;;;10.10;31.60;;;;;;5072818;28;20041;-73
2021/12/28 10:25:02;;;;;;;1.65;0.95;;;10.20;31.40;;;;;;5070029;28;20134;-72
2021/12/28 10:27:32;;;;;;;0.55;0.40;;;10.30;30.20;;;;;;5067463;28;20073;-71
2021/12/28 10:30:11;;;;;;;0.70;0.32;;;10.40;30.00;;;;;;5066577;28;20067;-72
2021/12/28 10:32:42;;;;;;;2.35;0.60;;;10.40;29.10;;;;;;5072081;28;20098;-71
2021/12/28 10:35:14;;;;;;;2.17;1.48;;;10.50;29.10;;;;;;5068563;28;20147;-71
2021/12/28 10:37:46;;;;;;;4.47;2.55;;;10.60;29.00;;;;;;5069548;28;20045;-72
2021/12/28 10:40:23;;;;;;;1.65;0.80;;;10.60;29.30;;;;;;5075189;28;20040;-72
2021/12/28 10:42:55;;;;;;;0.45;0.25;;;10.70;28.60;;;;;;5087235;28;20168;-72
2021/12/28 10:45:25;;;;;;;2.00;0.28;;;10.70;28.20;;;;;;5089823;28;20536;-71
2021/12/28 10:47:56;;;;;;;1.70;0.40;;;10.80;28.90;;;;;;5088197;28;20708;-72
2021/12/28 10:50:38;;;;;;;1.52;0.40;;;11.00;27.90;;;;;;5087808;28;20071;-72
2021/12/28 10:53:13;;;;;;;5.80;4.40;;;11.10;27.20;;;;;;5086849;28;20036;-71
2021/12/28 10:55:43;;;;;;;;;;;11.10;26.40;;;;;;5090684;28;20124;-72
2021/12/28 10:58:29;;;;;;;0.93;0.52;;;11.20;27.50;;;;;;5088237;28;19963;-71
2021/12/28 11:01:02;;;;;;;1.70;0.32;;;11.10;27.40;;;;;;5090893;28;20553;-71
2021/12/28 11:03:34;;;;;;;1.73;1.15;;;11.10;28.30;;;;;;5089729;28;20055;-72
2021/12/28 11:06:10;;;;;;;0.88;0.57;;;11.00;28.90;;;;;;5072082;28;20590;-72
2021/12/28 11:08:38;;;;;;;1.63;0.35;;;11.00;28.70;;;;;;5086699;28;20301;-71
2021/12/28 11:11:14;;;;;;;0.47;0.30;;;10.90;31.00;;;;;;5074828;28;20036;-72
2021/12/28 11:13:44;;;;;;;1.42;0.50;;;10.90;33.40;;;;;;5067369;28;20060;-70
2021/12/28 11:16:14;;;;;;;1.80;0.50;;;10.90;34.90;;;;;;5070116;28;20137;-71
2021/12/28 11:18:44;;;;;;;1.23;0.40;;;11.00;36.90;;;;;;5067194;28;20727;-72
2021/12/28 11:21:16;;;;;;;1.00;0.52;;;11.00;36.20;;;;;;5069043;28;20043;-71
2021/12/28 11:23:48;;;;;;;1.55;0.57;;;11.00;37.40;;;;;;5066779;28;20040;-72
2021/12/28 11:26:23;;;;;;;2.47;1.17;;;11.00;37.10;;;;;;5065684;28;20072;-71
2021/12/28 11:28:55;;;;;;;0.80;0.75;;;11.10;36.90;;;;;;5068952;28;20075;-71
2021/12/28 11:31:24;;;;;;;0.70;0.30;;;11.10;36.70;;;;;;5066690;28;20044;-72
2021/12/28 11:34:03;;;;;;;0.57;0.40;;;11.10;37.00;;;;;;5067611;28;20136;-72
2021/12/28 11:36:33;;;;;;;1.17;0.52;;;11.10;35.50;;;;;;5074732;28;20048;-71
2021/12/28 11:39:03;;;;;;;1.85;0.50;;;11.10;36.70;;;;;;5068071;28;20044;-71
2021/12/28 11:41:32;;;;;;;0.68;0.40;;;11.20;35.80;;;;;;5068457;28;20139;-71
2021/12/28 11:44:00;;;;;;;1.30;0.60;;;11.30;33.20;;;;;;5064871;28;20037;-71
2021/12/28 11:46:29;;;;;;;2.85;2.25;;;11.40;33.80;;;;;;5066479;28;20045;-71
2021/12/28 11:48:58;;;;;;;6.10;4.05;;;11.50;33.40;;;;;;5070457;28;20051;-71
2021/12/28 11:51:26;;;;;;;1.23;0.50;;;11.50;32.50;;;;;;5068332;28;20134;-71
2021/12/28 11:53:58;;;;;;;1.67;0.70;;;11.40;32.20;;;;;;5065740;28;20127;-71
2021/12/28 11:56:29;;;;;;;0.80;0.40;;;11.50;31.80;;;;;;5068000;28;20151;-72
2021/12/28 11:59:06;;;;;;;8.02;5.50;;;11.40;32.00;;;;;;5069214;28;20048;-72
2021/12/28 12:02:00;;;;;;;2.13;1.17;;;11.40;34.00;;;;;;5066389;28;20052;-71
2021/12/28 12:04:48;;;;;;;2.42;0.70;;;11.40;35.40;;;;;;5064816;28;20059;-73
2021/12/28 12:07:30;;;;;;;0.80;0.50;;;11.30;37.30;;;;;;5079885;28;20045;-71
2021/12/28 12:10:30;;;;;;;2.05;0.40;;;11.30;38.60;;;;;;5065479;28;20044;-72
2021/12/28 12:13:19;;;;;;;0.68;0.47;;;11.30;40.00;;;;;;5066384;28;20059;-71
2021/12/28 12:15:54;;;;;;;1.20;0.50;;;11.30;40.40;;;;;;5067716;28;20068;-73
2021/12/28 12:18:25;;;;;;;0.93;0.60;;;11.30;40.50;;;;;;5070814;28;20075;-73
2021/12/28 12:20:59;;;;;;;0.98;0.65;;;11.30;41.00;;;;;;5066638;28;20063;-72
2021/12/28 12:23:41;;;;;;;1.00;0.60;;;11.30;42.30;;;;;;5065807;28;20052;-72
2021/12/28 12:26:12;;;;;;;1.02;0.75;;;11.30;42.20;;;;;;5066868;28;20076;-71
2021/12/28 12:28:42;;;;;;;1.20;1.00;;;11.30;41.50;;;;;;5068616;28;20094;-73
2021/12/28 12:31:20;;;;;;;1.77;1.30;;;11.30;40.40;;;;;;5066285;28;20514;-72
2021/12/28 12:33:48;;;;;;;1.20;0.65;;;11.30;40.30;;;;;;5079785;28;20040;-72
2021/12/28 12:36:29;;;;;;;1.00;0.70;;;11.30;39.80;;;;;;5068907;28;20052;-72
2021/12/28 12:38:58;;;;;;;1.58;0.80;;;11.30;39.50;;;;;;5089740;28;20099;-71
2021/12/28 12:41:49;;;;;;;1.00;0.65;;;11.30;39.50;;;;;;5065127;28;20130;-71
2021/12/28 12:44:21;;;;;;;0.90;0.70;;;11.30;40.40;;;;;;5072287;28;20056;-72
2021/12/28 12:46:54;;;;;;;;;;;11.20;42.00;;;;;;5066243;28;20032;-71
2021/12/28 12:49:27;;;;;;;1.73;0.60;;;11.20;43.30;;;;;;5068445;28;20009;-72
2021/12/28 12:51:59;;;;;;;2.35;0.82;;;11.10;44.30;;;;;;5069738;28;20036;-71
2021/12/28 12:54:39;;;;;;;1.30;0.80;;;11.00;45.00;;;;;;5063869;28;20040;-72
2021/12/28 12:57:11;;;;;;;0.90;0.47;;;11.00;46.20;;;;;;5064025;28;20074;-72
2021/12/28 12:59:43;;;;;;;1.10;0.80;;;11.00;46.20;;;;;;5064024;28;20123;-71
2021/12/28 13:02:23;;;;;;;0.55;0.50;;;11.00;46.30;;;;;;5068708;28;20059;-72
2021/12/28 13:04:54;;;;;;;0.98;0.80;;;11.00;46.00;;;;;;5063381;28;20140;-72
2021/12/28 13:07:25;;;;;;;0.80;0.63;;;11.00;46.30;;;;;;5069934;28;20045;-71
2021/12/28 13:10:00;;;;;;;2.35;0.90;;;11.00;46.30;;;;;;5064238;28;20052;-71
2021/12/28 13:12:33;;;;;;;1.95;1.05;;;11.00;46.30;;;;;;5070238;28;20094;-71